Glenwood, MN

3:41 AM CDT on September 20, 2014 (GMT -0500)
KMGK (Magic 107.1) FM | Change Station
CLOSE
Current Station
Personal Weather Station
Location: Glenwood, MN
Elevation: 1168 ft
Nearby Weather Stations

Elev 1168 ft 45.65 °N, 95.39 °W | Updated 0 second ago

Clear
Clear
56.7 °F
Feels Like 56.7 °F
N
0.0
Wind Variable Wind from WSW
Gusts 2.0 mph

Today
High -- | Low -- °F
--% Chance of Precip.
Yesterday
High -- | Low -- °F
Precip. -- in
7:06 AM 7:23 PM
Waning Crescent, 13% visible
Pressure 29.74 in
Visibility 10.0 miles
Clouds Clear
Dew Point 57 °F
Humidity 100%
Rainfall 0.00 in
Snow Depth Not available.
UV 0 out of 12
Pollen 4.20 out of 12
Air Quality Not available.
Flu Activity Not available.
METAR KGHW 200833Z AUTO 26008KT 10SM CLR 14/13 A2974 RMK AO2

More Conditions Fewer Conditions

Pressure 29.74 in
Visibility 10.0 miles
Clouds Clear
Dew Point 57 °F
Humidity 100%
Rainfall 0.00 in
Snow Depth Not available.
UV 0 out of 12
Pollen 4.20 out of 12
Air Quality Not available.
Flu Activity Not available.
METAR KGHW 200833Z AUTO 26008KT 10SM CLR 14/13 A2974 RMK AO2

More Conditions Fewer Conditions

10-Day Weather Forecast

Almanac

Astronomy

Sep. 20, 2014 Rise Set
Actual Time 7:06 AM CDT 7:23 PM CDT
Civil Twilight 6:36 AM CDT 7:52 PM CDT
Nautical Twilight 6:01 AM CDT 8:27 PM CDT
Astronomical Twilight 5:25 AM CDT 9:03 PM CDT
Moon 3:38 AM CDT 5:33 PM CDT
Length of Visible Light 13h 16m
Length of Day
12h 16m
Tomorrow will be 3m 11s shorter.
Waning Crescent, 13% of the Moon is Illuminated
Today
Waning Crescent
Sep 24
New
Oct 1
First Quarter
Oct 8
Full
Oct 15
Last Quarter

Today's Extremes

State Highs State Lows

Community

WunderPhotos

Upload Photos

1,754,793 photos uploaded!

WunderBlogs® & News

Nearby

Snow Depth

Station Depth Elevation
No new snow has been reported.

Earthquake Activity

City Distance Mag. Time & Date
No recent earthquake activity has been reported nearby.
Minimum magnitude displayed is 2.5.

Coastal Water Temperatures

Place Temperature
No Stations Reporting

Nearby Weather Stations